地図

経路データ

SID SEASON NUMBER BASIN SUBBASIN NAME ISO_TIME NATURE LAT LON WMO_WIND WMO_PRES WMO_AGENCY TRACK_TYPE DIST2LAND LANDFALL IFLAG USA_AGENCY USA_ATCF_ID USA_LAT USA_LON USA_RECORD USA_STATUS USA_WIND USA_PRES USA_SSHS USA_R34_NE USA_R34_SE USA_R34_SW USA_R34_NW USA_R50_NE USA_R50_SE USA_R50_SW USA_R50_NW USA_R64_NE USA_R64_SE USA_R64_SW USA_R64_NW USA_POCI USA_ROCI USA_RMW USA_EYE TOKYO_LAT TOKYO_LON TOKYO_GRADE TOKYO_WIND TOKYO_PRES TOKYO_R50_DIR TOKYO_R50_LONG TOKYO_R50_SHORT TOKYO_R30_DIR TOKYO_R30_LONG TOKYO_R30_SHORT TOKYO_LAND CMA_LAT CMA_LON CMA_CAT CMA_WIND CMA_PRES HKO_LAT HKO_LON HKO_CAT HKO_WIND HKO_PRES NEWDELHI_LAT NEWDELHI_LON NEWDELHI_GRADE NEWDELHI_WIND NEWDELHI_PRES NEWDELHI_CI NEWDELHI_DP NEWDELHI_POCI REUNION_LAT REUNION_LON REUNION_TYPE REUNION_WIND REUNION_PRES REUNION_TNUM REUNION_CI REUNION_RMW REUNION_R34_NE REUNION_R34_SE REUNION_R34_SW REUNION_R34_NW REUNION_R50_NE REUNION_R50_SE REUNION_R50_SW REUNION_R50_NW REUNION_R64_NE REUNION_R64_SE REUNION_R64_SW REUNION_R64_NW BOM_LAT BOM_LON BOM_TYPE BOM_WIND BOM_PRES BOM_TNUM BOM_CI BOM_RMW BOM_R34_NE BOM_R34_SE BOM_R34_SW BOM_R34_NW BOM_R50_NE BOM_R50_SE BOM_R50_SW BOM_R50_NW BOM_R64_NE BOM_R64_SE BOM_R64_SW BOM_R64_NW BOM_ROCI BOM_POCI BOM_EYE BOM_POS_METHOD BOM_PRES_METHOD NADI_LAT NADI_LON NADI_CAT NADI_WIND NADI_PRES WELLINGTON_LAT WELLINGTON_LON WELLINGTON_WIND WELLINGTON_PRES DS824_LAT DS824_LON DS824_STAGE DS824_WIND DS824_PRES TD9636_LAT TD9636_LON TD9636_STAGE TD9636_WIND TD9636_PRES TD9635_LAT TD9635_LON TD9635_WIND TD9635_PRES TD9635_ROCI NEUMANN_LAT NEUMANN_LON NEUMANN_CLASS NEUMANN_WIND NEUMANN_PRES MLC_LAT MLC_LON MLC_CLASS MLC_WIND MLC_PRES USA_GUST BOM_GUST BOM_GUST_PER REUNION_GUST REUNION_GUST_PER USA_SEAHGT USA_SEARAD_NE USA_SEARAD_SE USA_SEARAD_SW USA_SEARAD_NW STORM_SPEED STORM_DIR
1973236N23125 1973 86 WP MM NOT_NAMED 1973-08-24 00:00:00 TS 22.6000 124.800 main 352 350 __O___________ -1 22.6000 124.800 0 1006 2 338
1973236N23125 1973 86 WP MM NOT_NAMED 1973-08-24 03:00:00 TS 22.6900 124.750 main 350 339 __P___________ -1 22.6900 124.750 0 1006 2 335
1973236N23125 1973 86 WP MM NOT_NAMED 1973-08-24 06:00:00 TS 22.8000 124.700 main 339 336 __O___________ -1 22.8000 124.700 0 1006 3 340
1973236N23125 1973 86 WP MM NOT_NAMED 1973-08-24 09:00:00 TS 22.9425 124.650 main 336 315 __P___________ -1 22.9425 124.650 0 1005 3 344
1973236N23125 1973 86 WP MM NOT_NAMED 1973-08-24 12:00:00 TS 23.1000 124.600 main 315 296 __O___________ -1 23.1000 124.600 0 19 1005 3 344
1973236N23125 1973 86 WP MM NOT_NAMED 1973-08-24 15:00:00 TS 23.2650 124.543 main 296 291 __P___________ -1 23.2650 124.543 0 19 1004 3 344
1973236N23125 1973 86 WP MM NOT_NAMED 1973-08-24 18:00:00 TS 23.4000 124.500 main 291 286 __O___________ -1 23.4000 124.500 0 19 1004 2 347
1973236N23125 1973 86 WP MM NOT_NAMED 1973-08-24 21:00:00 TS 23.4575 124.500 main 286 286 __P___________ -1 23.4575 124.500 0 19 1004 1 0
1973236N23125 1973 86 WP MM NOT_NAMED 1973-08-25 00:00:00 TS 23.5000 124.500 main 286 282 __O___________ -1 23.5000 124.500 0 19 1004 1 341
1973236N23125 1973 86 WP MM NOT_NAMED 1973-08-25 03:00:00 TS 23.5925 124.465 main 282 268 __P___________ -1 23.5925 124.465 0 19 1003 2 335
1973236N23125 1973 86 WP MM NOT_NAMED 1973-08-25 06:00:00 TS 23.7000 124.400 main 268 255 __O___________ -1 23.7000 124.400 0 19 1003 2 324
1973236N23125 1973 86 WP MM NOT_NAMED 1973-08-25 09:00:00 TS 23.7925 124.307 main 255 242 __P___________ -1 23.7925 124.307 0 19 1003 3 318
1973236N23125 1973 86 WP MM NOT_NAMED 1973-08-25 12:00:00 TS 23.9000 124.200 main 242 229 __O___________ -1 23.9000 124.200 0 19 1003 3 325
1973236N23125 1973 86 WP MM NOT_NAMED 1973-08-25 15:00:00 TS 24.0425 124.115 main 229 215 __P___________ -1 24.0425 124.115 0 21 1001 4 329
1973236N23125 1973 86 WP MM NOT_NAMED 1973-08-25 18:00:00 TS 24.2000 124.000 main 215 193 __O___________ -1 24.2000 124.000 1 23 1000 4 318
1973236N23125 1973 86 WP MM NOT_NAMED 1973-08-25 21:00:00 TS 24.3500 123.815 main 192 170 __P___________ -1 24.3500 123.815 1 26 1000 5 310
1973236N23125 1973 86 WP MM NOT_NAMED 1973-08-26 00:00:00 TS 24.5000 123.600 main 170 148 __O___________ -1 24.5000 123.600 1 29 1000 5 308
1973236N23125 1973 86 WP MM NOT_NAMED 1973-08-26 03:00:00 TS 24.6425 123.400 main 148 122 __P___________ -1 24.6425 123.400 1 29 1000 5 310
1973236N23125 1973 86 WP MM NOT_NAMED 1973-08-26 06:00:00 TS 24.8000 123.200 main 122 100 __O___________ -1 24.8000 123.200 1 29 1000 5 315
1973236N23125 1973 86 WP MM NOT_NAMED 1973-08-26 09:00:00 TS 24.9924 123.007 main 100 83 __P___________ -1 24.9924 123.007 1 29 1000 5 318
1973236N23125 1973 86 WP MM NOT_NAMED 1973-08-26 12:00:00 TS 25.2000 122.800 main 83 69 __O___________ -1 25.2000 122.800 1 29 1000 5 316
1973236N23125 1973 86 WP MM NOT_NAMED 1973-08-26 15:00:00 TS 25.3847 122.595 main 75 67 __P___________ -1 25.3847 122.595 1 29 1000 6 312
1973236N23125 1973 86 WP MM NOT_NAMED 1973-08-26 18:00:00 TS 25.6000 122.300 main 73 69 __O___________ -1 25.6000 122.300 1 29 1000 9 306
1973236N23125 1973 86 WP MM NOT_NAMED 1973-08-26 21:00:00 TS 25.8929 121.808 main 80 78 __P___________ -1 25.8929 121.808 1 33 1000 11 304
1973236N23125 1973 86 WP MM NOT_NAMED 1973-08-27 00:00:00 TS 26.2000 121.300 main 112 89 __O___________ -1 26.2000 121.300 2 38 1000 10 307
1973236N23125 1973 86 WP MM NOT_NAMED 1973-08-27 03:00:00 TS 26.4798 120.947 main 80 51 __P___________ -1 26.4798 120.947 2 38 1000 7 313
1973236N23125 1973 86 WP MM NOT_NAMED 1973-08-27 06:00:00 TS 26.7000 120.700 main 51 29 __O___________ -1 26.7000 120.700 2 38 1000 5 313
1973236N23125 1973 86 WP MM NOT_NAMED 1973-08-27 09:00:00 TS 26.8276 120.530 main 29 14 __P___________ -1 26.8276 120.530 2 33 1001 3 307
1973236N23125 1973 86 WP MM NOT_NAMED 1973-08-27 12:00:00 TS 26.9000 120.400 main 14 __O___________ -1 26.9000 120.400 1 29 1002 3 302

デジタル台風データ・検索

IBTrACS Databaseについて

本データベースは、米国NOAAが公開する1842年以降の世界の熱帯低気圧のベストトラックデータアーカイブInternational Best Track Archive for Climate Stewardship (IBTrACS)を、ウェブで閲覧しやすい形式に変換したものです。

最終更新日:2021-12-03